CheckWX is a tool to help pilots better visualize weather data.  It is not intended as a substitute for an official pre-flight weather briefing.

04:39:58 UTC

KSAC METAR
Sacramento Executive Airport
Sacramento, California, USA
Current

47 mins ago

KSAC 170353Z 19005KT 10SM CLR 18/11 A2995 RMK AO2 SLP140 T01830111
Observed
Sep-17 @ 03:53 UTC
Wind
  • 190° at 5 KTS
Visibility
10 SM
Flight Rules
VFR
Cloud Levels
  • Clear skies
Temperature
18°C / 64°F
Dewpoint
11°C / 52°F
Humidity
64%
Altimeter
29.95" Hg
Pressure
1014.22 hPa
Previous

2 hours ago

KSAC 170253Z 21007KT 10SM CLR 20/11 A2993 RMK AO2 SLP134 T02000106 51007
Observed
Sep-17 @ 02:53 UTC
Wind
  • 210° at 7 KTS
Visibility
10 SM
Flight Rules
VFR
Cloud Levels
  • Clear skies
Temperature
20°C / 68°F
Dewpoint
11°C / 52°F
Humidity
56%
Altimeter
29.93" Hg
Pressure
1013.52 hPa
Previous

3 hours ago

KSAC 170153Z 19009G15KT 10SM CLR 22/11 A2992 RMK AO2 SLP131 T02220106
Observed
Sep-17 @ 01:53 UTC
Wind
  • 190° at 9 KTS
  • Gusting to 15 KTS
Visibility
10 SM
Flight Rules
VFR
Cloud Levels
  • Clear skies
Temperature
22°C / 72°F
Dewpoint
11°C / 52°F
Humidity
50%
Altimeter
29.92" Hg
Pressure
1013.22 hPa